sensor_id;sensor_type;location;lat;lon;timestamp;temperature;humidity
354;DHT22;165;53.592;10.044;2023-02-28T00:00:29;4.80;99.90
354;DHT22;165;53.592;10.044;2023-02-28T00:02:55;4.70;99.90
354;DHT22;165;53.592;10.044;2023-02-28T00:05:22;4.60;99.90
354;DHT22;165;53.592;10.044;2023-02-28T00:07:49;4.50;99.90
354;DHT22;165;53.592;10.044;2023-02-28T00:10:20;4.50;99.90
354;DHT22;165;53.592;10.044;2023-02-28T00:13:06;4.40;99.90
354;DHT22;165;53.592;10.044;2023-02-28T00:15:32;4.30;99.90
354;DHT22;165;53.592;10.044;2023-02-28T00:17:58;4.20;99.90
354;DHT22;165;53.592;10.044;2023-02-28T00:20:24;4.20;99.90
354;DHT22;165;53.592;10.044;2023-02-28T00:22:51;4.20;99.90
354;DHT22;165;53.592;10.044;2023-02-28T00:25:20;4.20;99.90
354;DHT22;165;53.592;10.044;2023-02-28T00:27:46;4.20;99.90
354;DHT22;165;53.592;10.044;2023-02-28T00:30:15;4.30;99.90
354;DHT22;165;53.592;10.044;2023-02-28T00:32:41;4.30;99.90
354;DHT22;165;53.592;10.044;2023-02-28T00:35:07;4.20;99.90
354;DHT22;165;53.592;10.044;2023-02-28T00:37:33;4.20;99.90
354;DHT22;165;53.592;10.044;2023-02-28T00:39:59;4.20;99.90
354;DHT22;165;53.592;10.044;2023-02-28T00:42:24;4.20;99.90
354;DHT22;165;53.592;10.044;2023-02-28T00:44:50;4.20;99.90
354;DHT22;165;53.592;10.044;2023-02-28T00:47:15;4.20;99.90
354;DHT22;165;53.592;10.044;2023-02-28T00:49:41;4.10;99.90
354;DHT22;165;53.592;10.044;2023-02-28T00:52:06;4.20;99.90
354;DHT22;165;53.592;10.044;2023-02-28T00:54:32;4.20;99.90
354;DHT22;165;53.592;10.044;2023-02-28T00:56:59;4.10;99.90
354;DHT22;165;53.592;10.044;2023-02-28T00:59:25;4.10;99.90
354;DHT22;165;53.592;10.044;2023-02-28T01:01:50;4.10;99.90
354;DHT22;165;53.592;10.044;2023-02-28T01:09:29;4.00;99.90
354;DHT22;165;53.592;10.044;2023-02-28T01:11:54;3.90;99.90
354;DHT22;165;53.592;10.044;2023-02-28T01:14:20;3.80;99.90
354;DHT22;165;53.592;10.044;2023-02-28T01:16:45;3.90;99.90
354;DHT22;165;53.592;10.044;2023-02-28T01:19:11;3.90;99.90
354;DHT22;165;53.592;10.044;2023-02-28T01:21:36;4.00;99.90
354;DHT22;165;53.592;10.044;2023-02-28T01:24:03;3.90;99.90
354;DHT22;165;53.592;10.044;2023-02-28T01:26:28;4.00;99.90
354;DHT22;165;53.592;10.044;2023-02-28T01:28:54;4.00;99.90
354;DHT22;165;53.592;10.044;2023-02-28T01:31:21;4.10;99.90
354;DHT22;165;53.592;10.044;2023-02-28T01:33:46;4.10;99.90
354;DHT22;165;53.592;10.044;2023-02-28T01:36:18;4.20;99.90
354;DHT22;165;53.592;10.044;2023-02-28T01:38:44;4.20;99.90
354;DHT22;165;53.592;10.044;2023-02-28T01:41:28;4.20;99.90
354;DHT22;165;53.592;10.044;2023-02-28T01:44:53;4.20;99.90
354;DHT22;165;53.592;10.044;2023-02-28T01:46:52;4.30;99.90
354;DHT22;165;53.592;10.044;2023-02-28T01:49:18;4.20;99.90
354;DHT22;165;53.592;10.044;2023-02-28T01:51:46;4.20;99.90
354;DHT22;165;53.592;10.044;2023-02-28T01:54:15;4.30;99.90
354;DHT22;165;53.592;10.044;2023-02-28T01:56:46;4.20;99.90
354;DHT22;165;53.592;10.044;2023-02-28T01:59:18;4.20;99.90
354;DHT22;165;53.592;10.044;2023-02-28T02:01:46;4.30;99.90
354;DHT22;165;53.592;10.044;2023-02-28T02:04:12;4.30;99.90
354;DHT22;165;53.592;10.044;2023-02-28T02:06:43;4.20;99.90
354;DHT22;165;53.592;10.044;2023-02-28T02:09:09;4.20;99.90
354;DHT22;165;53.592;10.044;2023-02-28T02:11:40;4.20;99.90
354;DHT22;165;53.592;10.044;2023-02-28T02:14:29;4.10;99.90
354;DHT22;165;53.592;10.044;2023-02-28T02:20:13;4.00;99.90
354;DHT22;165;53.592;10.044;2023-02-28T02:25:45;4.00;99.90
354;DHT22;165;53.592;10.044;2023-02-28T02:28:40;3.90;99.90
354;DHT22;165;53.592;10.044;2023-02-28T02:34:40;3.80;99.90
354;DHT22;165;53.592;10.044;2023-02-28T02:37:24;3.60;99.90
354;DHT22;165;53.592;10.044;2023-02-28T02:40:00;3.50;99.90
354;DHT22;165;53.592;10.044;2023-02-28T02:42:35;3.50;99.90
354;DHT22;165;53.592;10.044;2023-02-28T02:47:46;3.30;99.90
354;DHT22;165;53.592;10.044;2023-02-28T02:50:20;3.30;99.90
354;DHT22;165;53.592;10.044;2023-02-28T02:52:52;3.20;99.90
354;DHT22;165;53.592;10.044;2023-02-28T02:55:20;3.10;99.90
354;DHT22;165;53.592;10.044;2023-02-28T02:57:59;3.00;99.90
354;DHT22;165;53.592;10.044;2023-02-28T03:00:31;2.90;99.90
354;DHT22;165;53.592;10.044;2023-02-28T03:02:59;3.00;99.90
354;DHT22;165;53.592;10.044;2023-02-28T03:05:39;2.90;99.90
354;DHT22;165;53.592;10.044;2023-02-28T03:08:07;2.80;99.90
354;DHT22;165;53.592;10.044;2023-02-28T03:10:36;2.80;99.90
354;DHT22;165;53.592;10.044;2023-02-28T03:13:23;2.70;99.90
354;DHT22;165;53.592;10.044;2023-02-28T03:24:32;2.50;99.90
354;DHT22;165;53.592;10.044;2023-02-28T03:27:08;2.50;99.90
354;DHT22;165;53.592;10.044;2023-02-28T03:29:47;2.50;99.90
354;DHT22;165;53.592;10.044;2023-02-28T03:32:22;2.50;99.90
354;DHT22;165;53.592;10.044;2023-02-28T03:37:25;2.40;99.90
354;DHT22;165;53.592;10.044;2023-02-28T03:40:00;2.20;99.90
354;DHT22;165;53.592;10.044;2023-02-28T03:42:31;2.10;99.90
354;DHT22;165;53.592;10.044;2023-02-28T03:45:02;2.20;99.90
354;DHT22;165;53.592;10.044;2023-02-28T03:47:39;2.10;99.90
354;DHT22;165;53.592;10.044;2023-02-28T03:50:17;2.00;99.90
354;DHT22;165;53.592;10.044;2023-02-28T03:52:51;1.90;99.90
354;DHT22;165;53.592;10.044;2023-02-28T03:55:18;1.90;99.90
354;DHT22;165;53.592;10.044;2023-02-28T03:58:10;1.80;99.90
354;DHT22;165;53.592;10.044;2023-02-28T04:00:40;1.80;99.90
354;DHT22;165;53.592;10.044;2023-02-28T04:03:06;1.80;99.90
354;DHT22;165;53.592;10.044;2023-02-28T04:05:32;1.70;99.90
354;DHT22;165;53.592;10.044;2023-02-28T04:08:05;1.70;99.90
354;DHT22;165;53.592;10.044;2023-02-28T04:10:31;1.60;99.90
354;DHT22;165;53.592;10.044;2023-02-28T04:12:57;1.50;99.90
354;DHT22;165;53.592;10.044;2023-02-28T04:15:22;1.50;99.90
354;DHT22;165;53.592;10.044;2023-02-28T04:17:48;1.60;99.90
354;DHT22;165;53.592;10.044;2023-02-28T04:20:13;1.70;99.90
354;DHT22;165;53.592;10.044;2023-02-28T04:22:39;1.70;99.90
354;DHT22;165;53.592;10.044;2023-02-28T04:25:05;1.70;99.90
354;DHT22;165;53.592;10.044;2023-02-28T04:27:31;1.70;99.90
354;DHT22;165;53.592;10.044;2023-02-28T04:29:56;1.60;99.90
354;DHT22;165;53.592;10.044;2023-02-28T04:32:22;1.60;99.90
354;DHT22;165;53.592;10.044;2023-02-28T04:34:47;1.50;99.90
354;DHT22;165;53.592;10.044;2023-02-28T04:37:13;1.40;99.90
354;DHT22;165;53.592;10.044;2023-02-28T04:39:39;1.30;99.90
354;DHT22;165;53.592;10.044;2023-02-28T04:42:05;1.30;99.90
354;DHT22;165;53.592;10.044;2023-02-28T04:44:30;1.30;99.90
354;DHT22;165;53.592;10.044;2023-02-28T04:46:56;1.20;99.90
354;DHT22;165;53.592;10.044;2023-02-28T04:49:21;1.10;99.90
354;DHT22;165;53.592;10.044;2023-02-28T04:51:47;1.00;99.90
354;DHT22;165;53.592;10.044;2023-02-28T04:54:12;1.00;99.90
354;DHT22;165;53.592;10.044;2023-02-28T04:56:38;1.00;99.90
354;DHT22;165;53.592;10.044;2023-02-28T04:59:03;1.00;99.90
354;DHT22;165;53.592;10.044;2023-02-28T05:01:31;0.90;99.90
354;DHT22;165;53.592;10.044;2023-02-28T05:03:58;0.90;99.90
354;DHT22;165;53.592;10.044;2023-02-28T05:06:26;0.90;99.90
354;DHT22;165;53.592;10.044;2023-02-28T05:08:52;0.90;99.90
354;DHT22;165;53.592;10.044;2023-02-28T05:11:23;0.80;99.90
354;DHT22;165;53.592;10.044;2023-02-28T05:13:50;0.80;99.90
354;DHT22;165;53.592;10.044;2023-02-28T05:16:16;0.80;99.90
354;DHT22;165;53.592;10.044;2023-02-28T05:18:41;0.80;99.90
354;DHT22;165;53.592;10.044;2023-02-28T05:23:53;0.70;99.90
354;DHT22;165;53.592;10.044;2023-02-28T05:26:19;0.80;99.90
354;DHT22;165;53.592;10.044;2023-02-28T05:28:45;1.00;99.90
354;DHT22;165;53.592;10.044;2023-02-28T05:31:11;1.00;99.90
354;DHT22;165;53.592;10.044;2023-02-28T05:33:36;1.10;99.90
354;DHT22;165;53.592;10.044;2023-02-28T05:36:02;1.00;99.90
354;DHT22;165;53.592;10.044;2023-02-28T05:38:28;0.90;99.90
354;DHT22;165;53.592;10.044;2023-02-28T05:40:53;0.90;99.90
354;DHT22;165;53.592;10.044;2023-02-28T05:43:19;0.90;99.90
354;DHT22;165;53.592;10.044;2023-02-28T05:45:44;0.90;99.90
354;DHT22;165;53.592;10.044;2023-02-28T05:48:10;0.80;99.90
354;DHT22;165;53.592;10.044;2023-02-28T05:50:35;0.80;99.90
354;DHT22;165;53.592;10.044;2023-02-28T05:53:01;0.80;99.90
354;DHT22;165;53.592;10.044;2023-02-28T05:55:26;0.70;99.90
354;DHT22;165;53.592;10.044;2023-02-28T05:57:52;0.70;99.90
354;DHT22;165;53.592;10.044;2023-02-28T06:00:18;0.70;99.90
354;DHT22;165;53.592;10.044;2023-02-28T06:02:43;0.70;99.90
354;DHT22;165;53.592;10.044;2023-02-28T06:05:16;0.70;99.90
354;DHT22;165;53.592;10.044;2023-02-28T06:07:43;0.70;99.90
354;DHT22;165;53.592;10.044;2023-02-28T06:10:10;0.70;99.90
354;DHT22;165;53.592;10.044;2023-02-28T06:12:36;0.70;99.90
354;DHT22;165;53.592;10.044;2023-02-28T06:15:02;0.70;99.90
354;DHT22;165;53.592;10.044;2023-02-28T06:17:28;0.70;99.90
354;DHT22;165;53.592;10.044;2023-02-28T06:19:53;0.60;99.90
354;DHT22;165;53.592;10.044;2023-02-28T06:22:19;0.60;99.90
354;DHT22;165;53.592;10.044;2023-02-28T06:24:44;0.70;99.90
354;DHT22;165;53.592;10.044;2023-02-28T06:27:09;0.70;99.90
354;DHT22;165;53.592;10.044;2023-02-28T06:29:36;0.80;99.90
354;DHT22;165;53.592;10.044;2023-02-28T06:32:04;0.80;99.90
354;DHT22;165;53.592;10.044;2023-02-28T06:34:29;1.00;99.90
354;DHT22;165;53.592;10.044;2023-02-28T06:36:55;0.90;99.90
354;DHT22;165;53.592;10.044;2023-02-28T06:39:20;0.90;99.90
354;DHT22;165;53.592;10.044;2023-02-28T06:41:48;1.00;99.90
354;DHT22;165;53.592;10.044;2023-02-28T06:44:15;1.00;99.90
354;DHT22;165;53.592;10.044;2023-02-28T06:46:42;1.10;99.90
354;DHT22;165;53.592;10.044;2023-02-28T06:49:09;1.10;99.90
354;DHT22;165;53.592;10.044;2023-02-28T06:51:36;1.10;99.90
354;DHT22;165;53.592;10.044;2023-02-28T06:54:03;1.10;99.90
354;DHT22;165;53.592;10.044;2023-02-28T06:56:28;1.20;99.90
354;DHT22;165;53.592;10.044;2023-02-28T06:58:54;1.30;99.90
354;DHT22;165;53.592;10.044;2023-02-28T07:01:20;1.30;99.90
354;DHT22;165;53.592;10.044;2023-02-28T07:03:46;1.40;99.90
354;DHT22;165;53.592;10.044;2023-02-28T07:06:12;1.50;99.90
354;DHT22;165;53.592;10.044;2023-02-28T07:08:37;1.50;99.90
354;DHT22;165;53.592;10.044;2023-02-28T07:11:03;1.40;99.90
354;DHT22;165;53.592;10.044;2023-02-28T07:13:29;1.50;99.90
354;DHT22;165;53.592;10.044;2023-02-28T07:15:57;1.60;99.90
354;DHT22;165;53.592;10.044;2023-02-28T07:18:22;1.70;99.90
354;DHT22;165;53.592;10.044;2023-02-28T07:20:48;1.70;99.90
354;DHT22;165;53.592;10.044;2023-02-28T07:23:13;1.70;99.90
354;DHT22;165;53.592;10.044;2023-02-28T07:25:39;1.70;99.90
354;DHT22;165;53.592;10.044;2023-02-28T07:28:14;1.70;99.90
354;DHT22;165;53.592;10.044;2023-02-28T07:30:40;1.70;99.90
354;DHT22;165;53.592;10.044;2023-02-28T07:33:06;1.80;99.90
354;DHT22;165;53.592;10.044;2023-02-28T07:35:31;1.80;99.90
354;DHT22;165;53.592;10.044;2023-02-28T07:37:58;1.90;99.90
354;DHT22;165;53.592;10.044;2023-02-28T07:40:23;1.90;99.90
354;DHT22;165;53.592;10.044;2023-02-28T07:42:49;2.20;99.90
354;DHT22;165;53.592;10.044;2023-02-28T07:45:14;2.00;99.90
354;DHT22;165;53.592;10.044;2023-02-28T07:47:41;2.10;99.90
354;DHT22;165;53.592;10.044;2023-02-28T07:50:09;2.20;99.90
354;DHT22;165;53.592;10.044;2023-02-28T07:52:38;2.20;99.90
354;DHT22;165;53.592;10.044;2023-02-28T07:55:05;2.30;99.90
354;DHT22;165;53.592;10.044;2023-02-28T07:57:31;2.40;99.90
354;DHT22;165;53.592;10.044;2023-02-28T07:59:57;2.40;99.90
354;DHT22;165;53.592;10.044;2023-02-28T08:02:43;2.50;99.90
354;DHT22;165;53.592;10.044;2023-02-28T08:05:12;2.60;99.90
354;DHT22;165;53.592;10.044;2023-02-28T08:07:37;2.60;99.90
354;DHT22;165;53.592;10.044;2023-02-28T08:10:03;2.70;99.90
354;DHT22;165;53.592;10.044;2023-02-28T08:12:28;2.80;99.90
354;DHT22;165;53.592;10.044;2023-02-28T08:14:54;2.90;99.90
354;DHT22;165;53.592;10.044;2023-02-28T08:17:19;3.00;99.90
354;DHT22;165;53.592;10.044;2023-02-28T08:19:46;4.10;99.90
354;DHT22;165;53.592;10.044;2023-02-28T08:22:11;8.60;99.90
354;DHT22;165;53.592;10.044;2023-02-28T08:24:37;13.10;99.90
354;DHT22;165;53.592;10.044;2023-02-28T08:27:06;15.90;99.90
354;DHT22;165;53.592;10.044;2023-02-28T08:29:32;17.70;96.40
354;DHT22;165;53.592;10.044;2023-02-28T08:31:58;19.20;86.00
354;DHT22;165;53.592;10.044;2023-02-28T08:34:23;19.10;77.00
354;DHT22;165;53.592;10.044;2023-02-28T08:36:48;18.20;72.60
354;DHT22;165;53.592;10.044;2023-02-28T08:39:14;19.00;72.50
354;DHT22;165;53.592;10.044;2023-02-28T08:41:42;19.20;69.30
354;DHT22;165;53.592;10.044;2023-02-28T08:44:08;19.10;67.10
354;DHT22;165;53.592;10.044;2023-02-28T08:49:28;18.40;63.00
354;DHT22;165;53.592;10.044;2023-02-28T08:51:53;19.80;62.30
354;DHT22;165;53.592;10.044;2023-02-28T08:54:19;18.40;61.80
354;DHT22;165;53.592;10.044;2023-02-28T08:56:46;19.40;61.30
354;DHT22;165;53.592;10.044;2023-02-28T08:59:11;18.20;60.20
354;DHT22;165;53.592;10.044;2023-02-28T09:01:44;17.50;58.60
354;DHT22;165;53.592;10.044;2023-02-28T09:04:10;18.70;59.20
354;DHT22;165;53.592;10.044;2023-02-28T09:06:38;17.70;57.20
354;DHT22;165;53.592;10.044;2023-02-28T09:09:46;17.40;58.40
354;DHT22;165;53.592;10.044;2023-02-28T09:12:12;17.60;58.00
354;DHT22;165;53.592;10.044;2023-02-28T09:17:20;18.30;90.00
354;DHT22;165;53.592;10.044;2023-02-28T09:19:51;18.20;55.10
354;DHT22;165;53.592;10.044;2023-02-28T09:22:24;18.60;55.40
354;DHT22;165;53.592;10.044;2023-02-28T09:24:50;18.90;54.00
354;DHT22;165;53.592;10.044;2023-02-28T09:27:17;19.40;54.10
354;DHT22;165;53.592;10.044;2023-02-28T09:29:52;18.30;53.80
354;DHT22;165;53.592;10.044;2023-02-28T09:32:27;18.70;52.90
354;DHT22;165;53.592;10.044;2023-02-28T09:35:02;18.60;52.80
354;DHT22;165;53.592;10.044;2023-02-28T09:37:27;18.50;51.60
354;DHT22;165;53.592;10.044;2023-02-28T09:39:52;18.20;51.30
354;DHT22;165;53.592;10.044;2023-02-28T09:42:57;17.90;51.40
354;DHT22;165;53.592;10.044;2023-02-28T19:58:49;3.20;99.60
354;DHT22;165;53.592;10.044;2023-02-28T20:01:17;3.20;99.80
354;DHT22;165;53.592;10.044;2023-02-28T20:03:47;3.20;99.90
354;DHT22;165;53.592;10.044;2023-02-28T20:06:13;3.20;99.90
354;DHT22;165;53.592;10.044;2023-02-28T20:08:38;3.10;99.90
354;DHT22;165;53.592;10.044;2023-02-28T20:11:07;3.10;99.90
354;DHT22;165;53.592;10.044;2023-02-28T20:13:32;3.00;99.90
354;DHT22;165;53.592;10.044;2023-02-28T20:16:18;3.00;99.90
354;DHT22;165;53.592;10.044;2023-02-28T20:18:50;3.00;99.90
354;DHT22;165;53.592;10.044;2023-02-28T20:21:15;3.00;99.90
354;DHT22;165;53.592;10.044;2023-02-28T20:23:41;2.90;99.90
354;DHT22;165;53.592;10.044;2023-02-28T20:26:07;2.90;99.90
354;DHT22;165;53.592;10.044;2023-02-28T20:28:32;2.90;99.90
354;DHT22;165;53.592;10.044;2023-02-28T20:30:58;2.80;99.90
354;DHT22;165;53.592;10.044;2023-02-28T20:33:43;2.80;99.90
354;DHT22;165;53.592;10.044;2023-02-28T20:36:09;2.80;99.90
354;DHT22;165;53.592;10.044;2023-02-28T20:38:35;2.70;99.90
354;DHT22;165;53.592;10.044;2023-02-28T20:41:01;2.70;99.90
354;DHT22;165;53.592;10.044;2023-02-28T20:43:31;2.80;99.90
354;DHT22;165;53.592;10.044;2023-02-28T20:45:57;2.70;99.90
354;DHT22;165;53.592;10.044;2023-02-28T20:48:24;2.60;99.90
354;DHT22;165;53.592;10.044;2023-02-28T20:50:54;2.70;99.90
354;DHT22;165;53.592;10.044;2023-02-28T20:53:24;2.70;99.90
354;DHT22;165;53.592;10.044;2023-02-28T20:55:58;3.00;99.90
354;DHT22;165;53.592;10.044;2023-02-28T20:58:27;2.60;99.90
354;DHT22;165;53.592;10.044;2023-02-28T21:01:20;2.50;99.90
354;DHT22;165;53.592;10.044;2023-02-28T21:03:48;2.50;99.90
354;DHT22;165;53.592;10.044;2023-02-28T21:06:15;2.50;99.90
354;DHT22;165;53.592;10.044;2023-02-28T21:08:41;2.50;99.90
354;DHT22;165;53.592;10.044;2023-02-28T21:11:08;2.40;99.90
354;DHT22;165;53.592;10.044;2023-02-28T21:13:37;2.50;99.90
354;DHT22;165;53.592;10.044;2023-02-28T21:16:07;2.40;99.90
354;DHT22;165;53.592;10.044;2023-02-28T21:18:34;2.40;99.90
354;DHT22;165;53.592;10.044;2023-02-28T21:21:01;2.30;99.90
354;DHT22;165;53.592;10.044;2023-02-28T21:23:27;2.30;99.90
354;DHT22;165;53.592;10.044;2023-02-28T21:25:52;2.20;99.90
354;DHT22;165;53.592;10.044;2023-02-28T21:28:21;2.20;99.90
354;DHT22;165;53.592;10.044;2023-02-28T21:30:46;2.20;99.90
354;DHT22;165;53.592;10.044;2023-02-28T21:33:12;2.20;99.90
354;DHT22;165;53.592;10.044;2023-02-28T21:35:37;2.20;99.90
354;DHT22;165;53.592;10.044;2023-02-28T21:38:03;2.20;99.90
354;DHT22;165;53.592;10.044;2023-02-28T21:40:28;2.20;99.90
354;DHT22;165;53.592;10.044;2023-02-28T21:42:54;2.20;99.90
354;DHT22;165;53.592;10.044;2023-02-28T21:45:19;2.20;99.90
354;DHT22;165;53.592;10.044;2023-02-28T21:47:45;2.20;99.90
354;DHT22;165;53.592;10.044;2023-02-28T21:50:11;2.10;99.90
354;DHT22;165;53.592;10.044;2023-02-28T21:52:39;2.20;99.90
354;DHT22;165;53.592;10.044;2023-02-28T21:57:54;2.20;99.90
354;DHT22;165;53.592;10.044;2023-02-28T22:00:20;2.80;99.90
354;DHT22;165;53.592;10.044;2023-02-28T22:02:47;2.10;99.90
354;DHT22;165;53.592;10.044;2023-02-28T22:05:12;2.10;99.90
354;DHT22;165;53.592;10.044;2023-02-28T22:07:38;2.00;99.90
354;DHT22;165;53.592;10.044;2023-02-28T22:10:03;2.00;99.90
354;DHT22;165;53.592;10.044;2023-02-28T22:12:30;2.00;99.90
354;DHT22;165;53.592;10.044;2023-02-28T22:14:55;2.00;99.90
354;DHT22;165;53.592;10.044;2023-02-28T22:17:21;1.90;99.90
354;DHT22;165;53.592;10.044;2023-02-28T22:19:46;1.90;99.90
354;DHT22;165;53.592;10.044;2023-02-28T22:22:12;2.00;99.90
354;DHT22;165;53.592;10.044;2023-02-28T22:24:37;1.90;99.90
354;DHT22;165;53.592;10.044;2023-02-28T22:27:03;1.90;99.90
354;DHT22;165;53.592;10.044;2023-02-28T22:29:28;2.60;99.90
354;DHT22;165;53.592;10.044;2023-02-28T22:31:54;1.90;99.90
354;DHT22;165;53.592;10.044;2023-02-28T22:34:19;1.90;99.90
354;DHT22;165;53.592;10.044;2023-02-28T22:36:45;1.80;99.90
354;DHT22;165;53.592;10.044;2023-02-28T22:39:11;1.80;99.90
354;DHT22;165;53.592;10.044;2023-02-28T22:41:37;1.70;99.90
354;DHT22;165;53.592;10.044;2023-02-28T22:44:03;1.80;99.90
354;DHT22;165;53.592;10.044;2023-02-28T22:46:31;1.70;99.90
354;DHT22;165;53.592;10.044;2023-02-28T22:48:58;1.70;99.90
354;DHT22;165;53.592;10.044;2023-02-28T22:51:24;1.80;99.90
354;DHT22;165;53.592;10.044;2023-02-28T22:53:51;1.80;99.90
354;DHT22;165;53.592;10.044;2023-02-28T22:56:19;1.80;99.90
354;DHT22;165;53.592;10.044;2023-02-28T22:58:53;1.70;99.90
354;DHT22;165;53.592;10.044;2023-02-28T23:01:29;1.80;99.90
354;DHT22;165;53.592;10.044;2023-02-28T23:03:58;1.90;99.90
354;DHT22;165;53.592;10.044;2023-02-28T23:06:36;1.80;99.90
354;DHT22;165;53.592;10.044;2023-02-28T23:09:04;1.80;99.90
354;DHT22;165;53.592;10.044;2023-02-28T23:11:39;1.80;99.90
354;DHT22;165;53.592;10.044;2023-02-28T23:14:05;1.70;99.90
354;DHT22;165;53.592;10.044;2023-02-28T23:16:36;1.70;99.90
354;DHT22;165;53.592;10.044;2023-02-28T23:19:05;1.60;99.90
354;DHT22;165;53.592;10.044;2023-02-28T23:21:32;1.60;99.90
354;DHT22;165;53.592;10.044;2023-02-28T23:23:59;1.60;99.90
354;DHT22;165;53.592;10.044;2023-02-28T23:26:25;1.50;99.90
354;DHT22;165;53.592;10.044;2023-02-28T23:28:50;1.50;99.90
354;DHT22;165;53.592;10.044;2023-02-28T23:31:16;1.50;99.90
354;DHT22;165;53.592;10.044;2023-02-28T23:33:41;1.50;99.90
354;DHT22;165;53.592;10.044;2023-02-28T23:36:09;1.40;99.90
354;DHT22;165;53.592;10.044;2023-02-28T23:38:34;1.40;99.90
354;DHT22;165;53.592;10.044;2023-02-28T23:41:00;1.40;99.90
354;DHT22;165;53.592;10.044;2023-02-28T23:43:27;1.40;99.90
354;DHT22;165;53.592;10.044;2023-02-28T23:45:56;1.50;99.90
354;DHT22;165;53.592;10.044;2023-02-28T23:48:21;1.60;99.90
354;DHT22;165;53.592;10.044;2023-02-28T23:50:47;1.50;99.90
354;DHT22;165;53.592;10.044;2023-02-28T23:53:12;1.50;99.90
354;DHT22;165;53.592;10.044;2023-02-28T23:55:45;1.50;99.90
354;DHT22;165;53.592;10.044;2023-02-28T23:58:10;1.60;99.90
